TUI065 LFPO-LIRP
Flight info
| Callsign | TUI065 |
|---|---|
| Flight time | 1h 18m |
| Altitude | 35000 |
| Route | OKASI2E/07 OKASI DCT OKEKO DCT MOU DCT MADIV DCT MOKIP DCT TUFTA DCT GEVEA DCT MOBLO/N0442F290 DCT LURAG DCT OBUXA DCT ANAKI DCT IXITO DCT TIDKA/N0376F190 L50 KONER |
| Aircraft | B38M/M-SDE1FGHILORVWXY/HB1 |
Departure
| Time | 2026-05-07 19:35 |
|---|---|
| Airport | Paris-Orly Airport (LFPO) |
Arrival
| Time | 2026-05-07 20:53 |
|---|---|
| Airport | Pisa International Airport (LIRP) |
| Time | Latitude | Longitude | Altitude | Speed | Heading |
|---|---|---|---|---|---|
| 2026-05-07 19:24 | 48.72585 | 2.36152 | 290 ft | 0 kts | 165° |
| 2026-05-07 19:26 | 48.72582 | 2.36153 | 290 ft | 4 kts | 165° |
| 2026-05-07 19:26 | 48.72548 | 2.36172 | 290 ft | 6 kts | 159° |
| 2026-05-07 19:27 | 48.72531 | 2.36181 | 294 ft | 4 kts | 159° |
| 2026-05-07 19:27 | 48.72505 | 2.36202 | 290 ft | 0 kts | 149° |
| 2026-05-07 19:27 | 48.72498 | 2.36208 | 290 ft | 2 kts | 149° |
| 2026-05-07 19:27 | 48.72475 | 2.36225 | 290 ft | 5 kts | 161° |
| 2026-05-07 19:28 | 48.72435 | 2.36214 | 292 ft | 7 kts | 210° |
| 2026-05-07 19:28 | 48.72404 | 2.36137 | 291 ft | 10 kts | 251° |
| 2026-05-07 19:28 | 48.72382 | 2.36027 | 289 ft | 12 kts | 254° |
| 2026-05-07 19:28 | 48.72361 | 2.35910 | 288 ft | 11 kts | 255° |
| 2026-05-07 19:29 | 48.72340 | 2.35793 | 288 ft | 12 kts | 255° |
| 2026-05-07 19:29 | 48.72315 | 2.35671 | 291 ft | 11 kts | 244° |
| 2026-05-07 19:29 | 48.72253 | 2.35610 | 290 ft | 10 kts | 189° |
| 2026-05-07 19:29 | 48.72181 | 2.35621 | 286 ft | 10 kts | 166° |
| 2026-05-07 19:30 | 48.72117 | 2.35648 | 286 ft | 10 kts | 161° |
| 2026-05-07 19:30 | 48.72071 | 2.35685 | 287 ft | 6 kts | 143° |
| 2026-05-07 19:30 | 48.72057 | 2.35706 | 289 ft | 2 kts | 133° |
| 2026-05-07 19:30 | 48.72054 | 2.35710 | 286 ft | 0 kts | 132° |
| 2026-05-07 19:33 | 48.72048 | 2.35721 | 289 ft | 4 kts | 130° |
| 2026-05-07 19:33 | 48.72023 | 2.35773 | 288 ft | 9 kts | 124° |
| 2026-05-07 19:34 | 48.71986 | 2.35874 | 286 ft | 13 kts | 115° |
| 2026-05-07 19:34 | 48.71974 | 2.36036 | 286 ft | 23 kts | 81° |
| 2026-05-07 19:34 | 48.72049 | 2.36470 | 293 ft | 73 kts | 74° |
| 2026-05-07 19:34 | 48.72244 | 2.37506 | 294 ft | 131 kts | 74° |
| 2026-05-07 19:35 | 48.72527 | 2.39052 | 442 ft | 167 kts | 76° |
| 2026-05-07 19:35 | 48.72780 | 2.40791 | 1192 ft | 165 kts | 80° |
| 2026-05-07 19:35 | 48.73010 | 2.42546 | 1888 ft | 176 kts | 77° |
| 2026-05-07 19:35 | 48.73357 | 2.44361 | 2518 ft | 185 kts | 72° |
| 2026-05-07 19:36 | 48.73777 | 2.46272 | 3057 ft | 198 kts | 72° |
| 2026-05-07 19:36 | 48.74084 | 2.48355 | 3592 ft | 210 kts | 88° |
| 2026-05-07 19:36 | 48.73951 | 2.50614 | 4140 ft | 223 kts | 97° |
| 2026-05-07 19:36 | 48.73858 | 2.53029 | 4694 ft | 236 kts | 86° |
| 2026-05-07 19:37 | 48.74113 | 2.55572 | 5116 ft | 259 kts | 79° |
| 2026-05-07 19:37 | 48.74234 | 2.58331 | 5186 ft | 262 kts | 96° |
| 2026-05-07 19:37 | 48.73722 | 2.60975 | 5315 ft | 270 kts | 118° |
| 2026-05-07 19:37 | 48.72440 | 2.63013 | 6257 ft | 266 kts | 150° |
| 2026-05-07 19:38 | 48.70656 | 2.63730 | 7034 ft | 275 kts | 182° |
| 2026-05-07 19:38 | 48.68762 | 2.63187 | 7863 ft | 275 kts | 195° |
| 2026-05-07 19:38 | 48.66922 | 2.62415 | 8717 ft | 279 kts | 194° |
| 2026-05-07 19:38 | 48.64967 | 2.61998 | 9432 ft | 285 kts | 186° |
| 2026-05-07 19:39 | 48.63007 | 2.61538 | 10279 ft | 287 kts | 193° |
| 2026-05-07 19:39 | 48.61124 | 2.60450 | 10893 ft | 297 kts | 208° |
| 2026-05-07 19:39 | 48.59293 | 2.58880 | 11425 ft | 308 kts | 209° |
| 2026-05-07 19:39 | 48.57353 | 2.57355 | 11919 ft | 321 kts | 207° |
| 2026-05-07 19:40 | 48.55312 | 2.55853 | 12464 ft | 330 kts | 207° |
| 2026-05-07 19:40 | 48.53226 | 2.54318 | 13010 ft | 340 kts | 207° |
| 2026-05-07 19:40 | 48.51082 | 2.52705 | 13646 ft | 346 kts | 208° |
| 2026-05-07 19:40 | 48.48875 | 2.51211 | 14384 ft | 350 kts | 199° |
| 2026-05-07 19:41 | 48.46511 | 2.50507 | 15111 ft | 356 kts | 185° |
| 2026-05-07 19:41 | 48.44027 | 2.50790 | 15830 ft | 362 kts | 169° |
| 2026-05-07 19:41 | 48.41652 | 2.52118 | 16516 ft | 369 kts | 156° |
| 2026-05-07 19:41 | 48.39340 | 2.53867 | 17175 ft | 374 kts | 155° |
| 2026-05-07 19:42 | 48.37035 | 2.55702 | 17828 ft | 378 kts | 154° |
| 2026-05-07 19:42 | 48.34702 | 2.57561 | 18468 ft | 381 kts | 154° |
| 2026-05-07 19:42 | 48.32329 | 2.59403 | 19053 ft | 385 kts | 155° |
| 2026-05-07 19:42 | 48.29938 | 2.61223 | 19641 ft | 388 kts | 155° |
| 2026-05-07 19:43 | 48.27516 | 2.63059 | 20193 ft | 391 kts | 155° |
| 2026-05-07 19:43 | 48.25088 | 2.64917 | 20722 ft | 394 kts | 155° |
| 2026-05-07 19:43 | 48.22636 | 2.66810 | 21235 ft | 397 kts | 155° |
| 2026-05-07 19:43 | 48.20167 | 2.68719 | 21722 ft | 400 kts | 155° |
| 2026-05-07 19:44 | 48.17687 | 2.70628 | 22188 ft | 403 kts | 155° |
| 2026-05-07 19:44 | 48.15178 | 2.72547 | 22633 ft | 406 kts | 155° |
| 2026-05-07 19:44 | 48.12686 | 2.74448 | 23057 ft | 408 kts | 155° |
| 2026-05-07 19:44 | 48.10147 | 2.76385 | 23476 ft | 411 kts | 155° |
| 2026-05-07 19:45 | 48.07549 | 2.78348 | 23743 ft | 417 kts | 157° |
| 2026-05-07 19:45 | 48.04928 | 2.80133 | 24045 ft | 420 kts | 160° |
| 2026-05-07 19:45 | 48.02212 | 2.81784 | 24400 ft | 423 kts | 161° |
| 2026-05-07 19:45 | 47.99466 | 2.83407 | 24762 ft | 425 kts | 161° |
| 2026-05-07 19:46 | 47.96724 | 2.85093 | 25122 ft | 427 kts | 160° |
| 2026-05-07 19:46 | 47.93994 | 2.86852 | 25488 ft | 429 kts | 159° |
| 2026-05-07 19:46 | 47.91247 | 2.88645 | 25848 ft | 431 kts | 159° |
| 2026-05-07 19:46 | 47.88490 | 2.90420 | 26198 ft | 433 kts | 160° |
| 2026-05-07 19:47 | 47.85705 | 2.92175 | 26517 ft | 435 kts | 160° |
| 2026-05-07 19:47 | 47.82909 | 2.93922 | 26831 ft | 437 kts | 160° |
| 2026-05-07 19:47 | 47.80096 | 2.95685 | 27146 ft | 439 kts | 160° |
| 2026-05-07 19:47 | 47.77282 | 2.97459 | 27452 ft | 441 kts | 160° |
| 2026-05-07 19:48 | 47.74451 | 2.99251 | 27757 ft | 443 kts | 160° |
| 2026-05-07 19:48 | 47.71610 | 3.01044 | 28041 ft | 445 kts | 160° |
| 2026-05-07 19:48 | 47.68762 | 3.02833 | 28320 ft | 446 kts | 160° |
| 2026-05-07 19:48 | 47.65896 | 3.04629 | 28601 ft | 448 kts | 160° |
| 2026-05-07 19:49 | 47.63012 | 3.06434 | 28868 ft | 450 kts | 160° |
| 2026-05-07 19:49 | 47.60127 | 3.08241 | 29146 ft | 451 kts | 160° |
| 2026-05-07 19:49 | 47.57233 | 3.10051 | 29404 ft | 453 kts | 160° |
| 2026-05-07 19:49 | 47.54324 | 3.11867 | 29651 ft | 454 kts | 160° |
| 2026-05-07 19:50 | 47.51441 | 3.13665 | 29893 ft | 456 kts | 160° |
| 2026-05-07 19:50 | 47.48479 | 3.15510 | 30164 ft | 457 kts | 160° |
| 2026-05-07 19:50 | 47.45579 | 3.17315 | 30464 ft | 457 kts | 160° |
| 2026-05-07 19:50 | 47.42655 | 3.19131 | 30774 ft | 457 kts | 160° |
| 2026-05-07 19:51 | 47.39723 | 3.20950 | 31002 ft | 458 kts | 160° |
| 2026-05-07 19:51 | 47.36769 | 3.22778 | 31007 ft | 461 kts | 160° |
| 2026-05-07 19:51 | 47.30912 | 3.26408 | 31013 ft | 454 kts | 160° |
| 2026-05-07 19:52 | 47.25095 | 3.29996 | 31016 ft | 453 kts | 160° |
| 2026-05-07 19:52 | 47.19285 | 3.33571 | 31106 ft | 454 kts | 160° |
| 2026-05-07 19:53 | 47.16376 | 3.35358 | 31396 ft | 454 kts | 160° |
| 2026-05-07 19:53 | 47.13448 | 3.37155 | 31700 ft | 454 kts | 160° |
| 2026-05-07 19:53 | 47.10542 | 3.38935 | 32023 ft | 453 kts | 161° |
| 2026-05-07 19:53 | 47.07668 | 3.40694 | 32331 ft | 453 kts | 161° |
| 2026-05-07 19:54 | 47.04732 | 3.42491 | 32659 ft | 452 kts | 161° |
| 2026-05-07 19:54 | 47.01869 | 3.44243 | 32972 ft | 451 kts | 161° |
| 2026-05-07 19:54 | 46.98980 | 3.46006 | 33288 ft | 450 kts | 161° |
| 2026-05-07 19:54 | 46.96087 | 3.47769 | 33615 ft | 449 kts | 161° |
| 2026-05-07 19:55 | 46.93199 | 3.49526 | 33929 ft | 448 kts | 161° |
| 2026-05-07 19:55 | 46.90327 | 3.51272 | 34247 ft | 448 kts | 161° |
| 2026-05-07 19:55 | 46.87449 | 3.53020 | 34543 ft | 447 kts | 161° |
| 2026-05-07 19:55 | 46.84573 | 3.54765 | 34812 ft | 447 kts | 161° |
| 2026-05-07 19:56 | 46.81704 | 3.56503 | 34997 ft | 450 kts | 161° |
| 2026-05-07 19:56 | 46.79781 | 3.57665 | 35002 ft | 452 kts | 161° |
| 2026-05-07 19:56 | 46.74114 | 3.61775 | 35013 ft | 463 kts | 147° |
| 2026-05-07 19:57 | 46.71745 | 3.64993 | 35019 ft | 469 kts | 133° |
| 2026-05-07 19:57 | 46.69968 | 3.68973 | 35030 ft | 473 kts | 118° |
| 2026-05-07 19:57 | 46.68064 | 3.78171 | 35020 ft | 475 kts | 106° |
| 2026-05-07 19:58 | 46.66570 | 3.87509 | 35006 ft | 472 kts | 106° |
| 2026-05-07 19:58 | 46.64985 | 3.96762 | 35007 ft | 472 kts | 107° |
| 2026-05-07 19:59 | 46.63354 | 4.05972 | 35009 ft | 474 kts | 107° |
| 2026-05-07 19:59 | 46.61750 | 4.15271 | 35018 ft | 475 kts | 107° |
| 2026-05-07 20:00 | 46.60115 | 4.24645 | 35016 ft | 475 kts | 107° |
| 2026-05-07 20:00 | 46.58480 | 4.33897 | 35013 ft | 475 kts | 107° |
| 2026-05-07 20:01 | 46.56837 | 4.43193 | 35015 ft | 475 kts | 107° |
| 2026-05-07 20:01 | 46.55188 | 4.52480 | 35010 ft | 475 kts | 107° |
| 2026-05-07 20:02 | 46.53527 | 4.61771 | 35014 ft | 475 kts | 107° |
| 2026-05-07 20:02 | 46.51860 | 4.71055 | 35014 ft | 475 kts | 107° |
| 2026-05-07 20:03 | 46.50183 | 4.80346 | 35010 ft | 476 kts | 107° |
| 2026-05-07 20:03 | 46.48498 | 4.89631 | 35013 ft | 476 kts | 107° |
| 2026-05-07 20:04 | 46.46807 | 4.98910 | 35020 ft | 476 kts | 108° |
| 2026-05-07 20:04 | 46.45102 | 5.08195 | 35012 ft | 477 kts | 108° |
| 2026-05-07 20:05 | 46.43394 | 5.17484 | 35020 ft | 477 kts | 108° |
| 2026-05-07 20:05 | 46.41692 | 5.26715 | 35025 ft | 478 kts | 108° |
| 2026-05-07 20:06 | 46.39950 | 5.36080 | 35032 ft | 478 kts | 108° |
| 2026-05-07 20:06 | 46.38229 | 5.45308 | 35027 ft | 478 kts | 108° |
| 2026-05-07 20:07 | 46.36504 | 5.54601 | 35027 ft | 478 kts | 108° |
| 2026-05-07 20:07 | 46.34766 | 5.63906 | 35019 ft | 479 kts | 108° |
| 2026-05-07 20:08 | 46.33008 | 5.73240 | 35029 ft | 480 kts | 108° |
| 2026-05-07 20:08 | 46.31248 | 5.82557 | 35035 ft | 480 kts | 108° |
| 2026-05-07 20:09 | 46.29481 | 5.91866 | 35040 ft | 481 kts | 108° |
| 2026-05-07 20:10 | 46.26809 | 6.05839 | 35034 ft | 480 kts | 109° |
| 2026-05-07 20:10 | 46.25641 | 6.10336 | 35040 ft | 476 kts | 120° |
| 2026-05-07 20:10 | 46.23979 | 6.14418 | 35044 ft | 469 kts | 130° |
| 2026-05-07 20:10 | 46.21899 | 6.17916 | 35048 ft | 462 kts | 141° |
| 2026-05-07 20:11 | 46.19580 | 6.21106 | 35043 ft | 461 kts | 142° |
| 2026-05-07 20:11 | 46.14862 | 6.27345 | 35037 ft | 460 kts | 143° |
| 2026-05-07 20:12 | 46.10142 | 6.33615 | 35030 ft | 461 kts | 142° |
| 2026-05-07 20:12 | 46.05449 | 6.39911 | 35030 ft | 462 kts | 142° |
| 2026-05-07 20:13 | 46.00724 | 6.46181 | 35029 ft | 462 kts | 142° |
| 2026-05-07 20:13 | 45.95989 | 6.52449 | 35031 ft | 462 kts | 143° |
| 2026-05-07 20:14 | 45.91260 | 6.58710 | 35017 ft | 463 kts | 142° |
| 2026-05-07 20:14 | 45.86518 | 6.64971 | 35016 ft | 462 kts | 143° |
| 2026-05-07 20:15 | 45.81809 | 6.71163 | 34986 ft | 463 kts | 143° |
| 2026-05-07 20:15 | 45.77063 | 6.77385 | 35019 ft | 463 kts | 143° |
| 2026-05-07 20:16 | 45.72293 | 6.83593 | 35007 ft | 463 kts | 143° |
| 2026-05-07 20:16 | 45.67525 | 6.89797 | 34998 ft | 463 kts | 143° |
| 2026-05-07 20:17 | 45.62761 | 6.95979 | 35006 ft | 463 kts | 144° |
| 2026-05-07 20:17 | 45.57963 | 7.02121 | 34987 ft | 463 kts | 144° |
| 2026-05-07 20:18 | 45.53144 | 7.08253 | 35010 ft | 464 kts | 144° |
| 2026-05-07 20:18 | 45.48335 | 7.14389 | 34982 ft | 464 kts | 144° |
| 2026-05-07 20:19 | 45.43537 | 7.20485 | 34966 ft | 466 kts | 144° |
| 2026-05-07 20:19 | 45.38721 | 7.26594 | 34951 ft | 463 kts | 144° |
| 2026-05-07 20:20 | 45.33900 | 7.32687 | 34944 ft | 464 kts | 145° |
| 2026-05-07 20:20 | 45.29072 | 7.38778 | 34922 ft | 465 kts | 145° |
| 2026-05-07 20:21 | 45.24231 | 7.44874 | 34974 ft | 466 kts | 145° |
| 2026-05-07 20:21 | 45.19356 | 7.50994 | 34997 ft | 468 kts | 145° |
| 2026-05-07 20:22 | 45.14486 | 7.57098 | 35006 ft | 467 kts | 145° |
| 2026-05-07 20:22 | 45.09624 | 7.63175 | 35007 ft | 467 kts | 145° |
| 2026-05-07 20:23 | 45.04776 | 7.69218 | 35002 ft | 467 kts | 146° |
| 2026-05-07 20:23 | 44.99904 | 7.75279 | 35021 ft | 467 kts | 146° |
| 2026-05-07 20:24 | 44.95030 | 7.81329 | 35007 ft | 466 kts | 146° |
| 2026-05-07 20:24 | 44.90157 | 7.87360 | 35003 ft | 466 kts | 146° |
| 2026-05-07 20:25 | 44.85271 | 7.93396 | 35013 ft | 467 kts | 146° |
| 2026-05-07 20:25 | 44.80385 | 7.99417 | 35019 ft | 467 kts | 146° |
| 2026-05-07 20:26 | 44.75493 | 8.05430 | 35009 ft | 468 kts | 147° |
| 2026-05-07 20:26 | 44.70574 | 8.11462 | 35013 ft | 469 kts | 147° |
| 2026-05-07 20:27 | 44.65654 | 8.17485 | 35007 ft | 469 kts | 147° |
| 2026-05-07 20:27 | 44.63194 | 8.20490 | 34868 ft | 472 kts | 147° |
| 2026-05-07 20:27 | 44.60720 | 8.23509 | 34633 ft | 466 kts | 147° |
| 2026-05-07 20:27 | 44.58304 | 8.26464 | 34405 ft | 458 kts | 147° |
| 2026-05-07 20:28 | 44.55900 | 8.29394 | 34145 ft | 457 kts | 147° |
| 2026-05-07 20:28 | 44.53683 | 8.32078 | 33919 ft | 458 kts | 148° |
| 2026-05-07 20:28 | 44.51271 | 8.34996 | 33664 ft | 458 kts | 148° |
| 2026-05-07 20:28 | 44.48871 | 8.37908 | 33429 ft | 458 kts | 147° |
| 2026-05-07 20:29 | 44.46484 | 8.40804 | 33180 ft | 461 kts | 147° |
| 2026-05-07 20:29 | 44.44037 | 8.43771 | 32919 ft | 460 kts | 147° |
| 2026-05-07 20:29 | 44.41642 | 8.46668 | 32669 ft | 462 kts | 148° |
| 2026-05-07 20:29 | 44.39200 | 8.49614 | 32412 ft | 463 kts | 147° |
| 2026-05-07 20:30 | 44.36767 | 8.52548 | 32179 ft | 464 kts | 147° |
| 2026-05-07 20:30 | 44.34304 | 8.55513 | 31946 ft | 468 kts | 147° |
| 2026-05-07 20:30 | 44.31846 | 8.58473 | 31692 ft | 466 kts | 147° |
| 2026-05-07 20:30 | 44.29382 | 8.61441 | 31444 ft | 468 kts | 147° |
| 2026-05-07 20:31 | 44.26930 | 8.64392 | 31193 ft | 467 kts | 147° |
| 2026-05-07 20:31 | 44.24466 | 8.67345 | 30937 ft | 465 kts | 147° |
| 2026-05-07 20:31 | 44.22014 | 8.70280 | 30694 ft | 464 kts | 147° |
| 2026-05-07 20:31 | 44.19572 | 8.73197 | 30443 ft | 462 kts | 147° |
| 2026-05-07 20:32 | 44.17127 | 8.76097 | 30129 ft | 459 kts | 147° |
| 2026-05-07 20:32 | 44.14697 | 8.78948 | 29588 ft | 453 kts | 147° |
| 2026-05-07 20:32 | 44.12307 | 8.81737 | 29042 ft | 446 kts | 147° |
| 2026-05-07 20:32 | 44.09943 | 8.84491 | 28487 ft | 440 kts | 147° |
| 2026-05-07 20:33 | 44.07611 | 8.87208 | 27962 ft | 433 kts | 147° |
| 2026-05-07 20:33 | 44.05313 | 8.89885 | 27430 ft | 431 kts | 146° |
| 2026-05-07 20:33 | 44.03003 | 8.92569 | 26900 ft | 434 kts | 146° |
| 2026-05-07 20:33 | 44.00698 | 8.95246 | 26367 ft | 432 kts | 146° |
| 2026-05-07 20:34 | 43.98402 | 8.97917 | 25843 ft | 429 kts | 146° |
| 2026-05-07 20:34 | 43.96129 | 9.00560 | 25316 ft | 422 kts | 145° |
| 2026-05-07 20:34 | 43.93903 | 9.03144 | 24806 ft | 414 kts | 145° |
| 2026-05-07 20:34 | 43.91708 | 9.05687 | 24287 ft | 407 kts | 145° |
| 2026-05-07 20:35 | 43.89577 | 9.08150 | 23789 ft | 400 kts | 144° |
| 2026-05-07 20:35 | 43.87425 | 9.10634 | 23297 ft | 398 kts | 144° |
| 2026-05-07 20:35 | 43.85307 | 9.13073 | 22809 ft | 402 kts | 144° |
| 2026-05-07 20:35 | 43.83166 | 9.15540 | 22317 ft | 400 kts | 144° |
| 2026-05-07 20:36 | 43.81029 | 9.18005 | 21821 ft | 397 kts | 144° |
| 2026-05-07 20:36 | 43.78925 | 9.20434 | 21354 ft | 389 kts | 144° |
| 2026-05-07 20:36 | 43.76871 | 9.22804 | 20868 ft | 382 kts | 144° |
| 2026-05-07 20:36 | 43.74848 | 9.25132 | 20396 ft | 374 kts | 143° |
| 2026-05-07 20:37 | 43.72858 | 9.27417 | 19936 ft | 375 kts | 143° |
| 2026-05-07 20:37 | 43.70830 | 9.29736 | 19461 ft | 379 kts | 143° |
| 2026-05-07 20:37 | 43.68802 | 9.32060 | 19001 ft | 378 kts | 143° |
| 2026-05-07 20:37 | 43.66790 | 9.34369 | 18436 ft | 375 kts | 143° |
| 2026-05-07 20:38 | 43.64797 | 9.36656 | 17860 ft | 370 kts | 142° |
| 2026-05-07 20:38 | 43.62829 | 9.38911 | 17280 ft | 365 kts | 142° |
| 2026-05-07 20:38 | 43.60890 | 9.41126 | 16689 ft | 361 kts | 142° |
| 2026-05-07 20:38 | 43.58960 | 9.43327 | 16062 ft | 358 kts | 142° |
| 2026-05-07 20:39 | 43.57071 | 9.45480 | 15443 ft | 355 kts | 142° |
| 2026-05-07 20:39 | 43.55150 | 9.47669 | 14793 ft | 353 kts | 142° |
| 2026-05-07 20:39 | 43.53364 | 9.49920 | 14144 ft | 353 kts | 131° |
| 2026-05-07 20:39 | 43.52069 | 9.52780 | 13507 ft | 353 kts | 113° |
| 2026-05-07 20:40 | 43.51526 | 9.56048 | 12862 ft | 352 kts | 93° |
| 2026-05-07 20:40 | 43.51818 | 9.59375 | 12226 ft | 350 kts | 76° |
| 2026-05-07 20:40 | 43.52466 | 9.62598 | 11575 ft | 348 kts | 73° |
| 2026-05-07 20:40 | 43.53173 | 9.65738 | 10965 ft | 336 kts | 72° |
| 2026-05-07 20:41 | 43.53859 | 9.68725 | 10411 ft | 317 kts | 73° |
| 2026-05-07 20:41 | 43.54483 | 9.71553 | 9905 ft | 305 kts | 73° |
| 2026-05-07 20:41 | 43.55079 | 9.74358 | 9406 ft | 305 kts | 74° |
| 2026-05-07 20:41 | 43.55665 | 9.77157 | 8911 ft | 305 kts | 74° |
| 2026-05-07 20:42 | 43.56256 | 9.79955 | 8464 ft | 303 kts | 74° |
| 2026-05-07 20:42 | 43.56850 | 9.82734 | 8012 ft | 301 kts | 74° |
| 2026-05-07 20:42 | 43.57439 | 9.85487 | 7564 ft | 298 kts | 74° |
| 2026-05-07 20:42 | 43.58016 | 9.88193 | 7110 ft | 290 kts | 74° |
| 2026-05-07 20:43 | 43.58578 | 9.90839 | 6659 ft | 283 kts | 74° |
| 2026-05-07 20:43 | 43.58884 | 9.93439 | 6206 ft | 275 kts | 95° |
| 2026-05-07 20:43 | 43.58217 | 9.95843 | 6035 ft | 273 kts | 131° |
| 2026-05-07 20:43 | 43.56696 | 9.97340 | 6036 ft | 268 kts | 158° |
| 2026-05-07 20:44 | 43.54937 | 9.98112 | 6024 ft | 263 kts | 168° |
| 2026-05-07 20:44 | 43.53151 | 9.98569 | 6015 ft | 261 kts | 172° |
| 2026-05-07 20:44 | 43.51362 | 9.99009 | 6015 ft | 260 kts | 170° |
| 2026-05-07 20:44 | 43.49603 | 9.99534 | 5938 ft | 255 kts | 168° |
| 2026-05-07 20:45 | 43.47888 | 10.00203 | 5508 ft | 259 kts | 157° |
| 2026-05-07 20:45 | 43.46438 | 10.01655 | 5153 ft | 260 kts | 133° |
| 2026-05-07 20:45 | 43.45292 | 10.03575 | 4813 ft | 260 kts | 129° |
| 2026-05-07 20:45 | 43.44220 | 10.05567 | 4460 ft | 258 kts | 127° |
| 2026-05-07 20:46 | 43.43178 | 10.07566 | 4126 ft | 257 kts | 127° |
| 2026-05-07 20:46 | 43.42234 | 10.09617 | 4025 ft | 252 kts | 111° |
| 2026-05-07 20:46 | 43.42117 | 10.11949 | 4025 ft | 243 kts | 74° |
| 2026-05-07 20:46 | 43.42985 | 10.13844 | 4030 ft | 232 kts | 43° |
| 2026-05-07 20:47 | 43.44255 | 10.15124 | 4023 ft | 227 kts | 31° |
| 2026-05-07 20:47 | 43.45596 | 10.16218 | 4011 ft | 223 kts | 31° |
| 2026-05-07 20:47 | 43.46908 | 10.17375 | 4021 ft | 231 kts | 34° |
| 2026-05-07 20:47 | 43.48229 | 10.18672 | 3970 ft | 234 kts | 36° |
| 2026-05-07 20:48 | 43.49525 | 10.20012 | 3810 ft | 228 kts | 37° |
| 2026-05-07 20:48 | 43.50764 | 10.21305 | 3691 ft | 219 kts | 37° |
| 2026-05-07 20:48 | 43.51960 | 10.22541 | 3509 ft | 212 kts | 37° |
| 2026-05-07 20:48 | 43.53135 | 10.23744 | 3297 ft | 208 kts | 37° |
| 2026-05-07 20:49 | 43.54286 | 10.24921 | 3083 ft | 204 kts | 37° |
| 2026-05-07 20:49 | 43.55412 | 10.26075 | 2862 ft | 200 kts | 37° |
| 2026-05-07 20:49 | 43.56519 | 10.27216 | 2656 ft | 196 kts | 37° |
| 2026-05-07 20:49 | 43.57588 | 10.28320 | 2521 ft | 186 kts | 37° |
| 2026-05-07 20:50 | 43.58575 | 10.29336 | 2512 ft | 168 kts | 37° |
| 2026-05-07 20:50 | 43.59487 | 10.30281 | 2347 ft | 159 kts | 37° |
| 2026-05-07 20:50 | 43.60321 | 10.31194 | 2093 ft | 149 kts | 39° |
| 2026-05-07 20:50 | 43.61137 | 10.32068 | 1704 ft | 148 kts | 35° |
| 2026-05-07 20:51 | 43.61986 | 10.32852 | 1309 ft | 148 kts | 34° |
| 2026-05-07 20:51 | 43.62788 | 10.33683 | 1076 ft | 143 kts | 38° |
| 2026-05-07 20:51 | 43.63585 | 10.34508 | 875 ft | 142 kts | 36° |
| 2026-05-07 20:51 | 43.64371 | 10.35318 | 745 ft | 141 kts | 37° |
| 2026-05-07 20:52 | 43.65157 | 10.36131 | 584 ft | 143 kts | 36° |
| 2026-05-07 20:52 | 43.65967 | 10.36942 | 395 ft | 145 kts | 37° |
| 2026-05-07 20:52 | 43.66780 | 10.37785 | 236 ft | 145 kts | 35° |
| 2026-05-07 20:52 | 43.67587 | 10.38605 | 58 ft | 141 kts | 36° |
| 2026-05-07 20:53 | 43.68319 | 10.39355 | 18 ft | 111 kts | 37° |
| 2026-05-07 20:53 | 43.68783 | 10.39841 | 19 ft | 65 kts | 36° |
| 2026-05-07 20:53 | 43.69028 | 10.40098 | 19 ft | 26 kts | 37° |
| 2026-05-07 20:53 | 43.69134 | 10.40207 | 20 ft | 11 kts | 37° |
| 2026-05-07 20:54 | 43.69197 | 10.40272 | 21 ft | 11 kts | 36° |
| 2026-05-07 20:54 | 43.69259 | 10.40302 | 19 ft | 10 kts | 352° |
| 2026-05-07 20:54 | 43.69312 | 10.40232 | 19 ft | 10 kts | 308° |
| 2026-05-07 20:54 | 43.69344 | 10.40177 | 21 ft | 5 kts | 308° |
| 2026-05-07 20:55 | 43.69357 | 10.40153 | 22 ft | 2 kts | 308° |
| 2026-05-07 20:55 | 43.69373 | 10.40128 | 24 ft | 6 kts | 316° |
| 2026-05-07 20:55 | 43.69436 | 10.40096 | 19 ft | 13 kts | 350° |
| 2026-05-07 20:55 | 43.69535 | 10.40075 | 15 ft | 11 kts | 351° |
| 2026-05-07 20:56 | 43.69597 | 10.40062 | 15 ft | 8 kts | 352° |
| 2026-05-07 20:56 | 43.69640 | 10.40053 | 15 ft | 6 kts | 351° |
| 2026-05-07 20:56 | 43.69662 | 10.40045 | 15 ft | 4 kts | 336° |
| 2026-05-07 20:56 | 43.69682 | 10.40004 | 14 ft | 3 kts | 287° |
| 2026-05-07 20:57 | 43.69688 | 10.39967 | 14 ft | 5 kts | 280° |
| 2026-05-07 20:57 | 43.69692 | 10.39940 | 14 ft | 2 kts | 279° |
| 2026-05-07 20:57 | 43.69700 | 10.39918 | 14 ft | 3 kts | 317° |
| 2026-05-07 20:57 | 43.69719 | 10.39910 | 14 ft | 2 kts | 348° |
| 2026-05-07 20:58 | 43.69738 | 10.39910 | 14 ft | 3 kts | 4° |
| 2026-05-07 20:58 | 43.69754 | 10.39912 | 14 ft | 0 kts | 8° |